Aeroporto :
LOGIN :

Iscrizione | Disclaimer

   EN    FR    IT 

 










Sommario :    VFR   VFR Marginale   IFR   IFR Intensivo   IFR Molto Intensivo
Visibilità : 
Base nubi : 
>= 8 km
>= 3000ft
5 / 8 km
1000 / 3000 ft
1500m / 5 km
500 / 1000 ft
800 / 1500m
200 / 500 ft
< 800m
< 200 ft
Simboli :   Temporali  Nebbia  Neve Forte  Precipitazioni Forti  Vento > 20 kt
SIGMETs :   Varie  Temporali  Ghiacco  Turbolenza  Onda orograficha  Ceneri Vulcaniche







- Altitudine del aeroporto : 325 ft
- Codice IATA : POX
- Carte del aeroporto


LFPT - Pontoise

ULTIMO METAR :
  • 200800Z AUTO 34006KT 330V030 9999 BKN014 OVC019 13/10 Q1011

METARs OBSOLETI :
  • 200730Z AUTO 34004KT 310V020 9999 BKN013 12/10 Q1011
  • 200700Z AUTO 33005KT 9000 BKN012 12/10 Q1010
  • 200630Z AUTO 34004KT 310V030 8000 -RA FEW015 BKN048 11/10 Q1010
  • 200600Z AUTO 32004KT 9000 -RA NSC 11/10 Q1010
  • 200530Z AUTO 33004KT 7000 -RA ///TCU 11/10 Q1010

TAF N/A
ATIS : +33 1 30 30 52 08
Nessun NOTAM noto per questo aeroporto.



MetMap, La meteo Aeronautica in un colpo d'occhio ! - Copyright ORBIFLY Dicembre 2007 - Disclaimer

ORBIFLY MET'MAP TEAM :

Programmazione e sviluppo : Alexandra Zaïnal
Concezione e sviluppo : Baudouin d'Aumeries
Co-Programmazione e sviluppo : Marc-Olivier Méhu
Supporto tecnico e logistico : Manuel Goepfert
Aiuto per la traduzione : Arnaldo La Scala

Contatto : metmap@orbifly.com




FONTI E CREDITI :

   NOAA